createdAt,value
2018-01-19T18:00:07.748Z,100422.53
2018-01-19T18:02:36.109Z,100419.59
2018-01-19T18:05:03.530Z,100419.18
2018-01-19T18:07:30.971Z,100428.15
2018-01-19T18:09:58.382Z,100432.02
2018-01-19T18:12:30.348Z,100433.81
2018-01-19T18:14:58.728Z,100443.47
2018-01-19T18:17:33.014Z,100433.58
2018-01-19T18:20:00.601Z,100433.16
2018-01-19T18:22:48.360Z,100436.73
2018-01-19T18:25:16.838Z,100432.03
2018-01-19T18:27:45.233Z,100418.42
2018-01-19T18:30:13.436Z,100419.88
2018-01-19T18:32:41.105Z,100417.52
2018-01-19T18:35:10.876Z,100428.45
2018-01-19T18:37:39.443Z,100419.05
2018-01-19T18:40:09.007Z,100423.29
2018-01-19T18:42:36.451Z,100419.58
2018-01-19T18:45:03.998Z,100425.64
2018-01-19T18:47:31.552Z,100430.81
2018-01-19T18:49:59.069Z,100427.00
2018-01-19T18:52:27.610Z,100416.80
2018-01-19T18:55:00.023Z,100423.61
2018-01-19T18:57:27.722Z,100418.27
2018-01-19T18:59:55.270Z,100425.36
2018-01-19T19:02:22.772Z,100428.70
2018-01-19T19:04:50.327Z,100426.84
2018-01-19T19:07:17.759Z,100422.55
2018-01-19T19:09:45.200Z,100420.26
2018-01-19T19:12:33.038Z,100418.64
2018-01-19T19:15:00.478Z,100426.98
2018-01-19T19:17:35.861Z,100425.23
2018-01-19T19:20:03.289Z,100424.00
2018-01-19T19:22:31.619Z,100431.72
2018-01-19T19:25:04.836Z,100433.44
2018-01-19T19:27:34.226Z,100434.38
2018-01-19T19:30:01.667Z,100428.73
2018-01-19T19:32:36.200Z,100430.79
2018-01-19T19:35:03.625Z,100429.77
2018-01-19T19:37:34.008Z,100429.75
2018-01-19T19:40:01.434Z,100429.98
2018-01-19T19:42:28.872Z,100429.36
2018-01-19T19:44:56.322Z,100436.87
2018-01-19T19:47:27.011Z,100439.63
2018-01-19T19:49:54.449Z,100441.49
2018-01-19T19:52:32.644Z,100439.96
2018-01-19T19:56:37.138Z,100437.59
2018-01-19T19:59:09.409Z,100438.67
2018-01-19T20:01:35.311Z,100442.77
2018-01-19T20:04:02.179Z,100432.78
2018-01-19T20:06:28.082Z,100435.08
2018-01-19T20:08:55.044Z,100439.42
2018-01-19T20:11:22.914Z,100438.05
2018-01-19T20:13:53.736Z,100441.34
2018-01-19T20:16:21.621Z,100434.32
2018-01-19T20:18:49.510Z,100438.54
2018-01-19T20:21:31.022Z,100439.73
2018-01-19T20:23:56.850Z,100435.00
2018-01-19T20:26:22.727Z,100444.47
2018-01-19T20:28:49.694Z,100441.14
2018-01-19T20:31:15.666Z,100447.13
2018-01-19T20:33:57.771Z,100459.48
2018-01-19T20:36:26.662Z,100449.59
2018-01-19T20:38:54.514Z,100450.51
2018-01-19T20:41:25.111Z,100446.09
2018-01-19T20:43:54.161Z,100446.91
2018-01-19T20:46:22.023Z,100445.16
2018-01-19T20:48:49.897Z,100448.38
2018-01-19T20:51:21.633Z,100455.50
2018-01-19T20:53:59.532Z,100457.16
2018-01-19T20:56:25.446Z,100462.30
2018-01-19T20:58:58.753Z,100457.58
2018-01-19T21:01:32.649Z,100463.52
2018-01-19T21:03:58.577Z,100450.97
2018-01-19T21:06:25.447Z,100459.45
2018-01-19T21:08:58.188Z,100460.38
2018-01-19T21:11:36.816Z,100462.45
2018-01-19T21:14:28.747Z,100455.88
2018-01-19T21:16:58.752Z,100459.16
2018-01-19T21:19:38.197Z,100453.00
2018-01-19T21:22:07.453Z,100461.22
2018-01-19T21:27:41.256Z,100454.93
2018-01-19T21:30:13.721Z,100464.06
2018-01-19T21:33:05.936Z,100467.52
2018-01-19T21:35:32.812Z,100463.94
2018-01-19T21:38:00.680Z,100462.17
2018-01-19T21:40:26.579Z,100467.08
2018-01-19T21:42:54.482Z,100469.44
2018-01-19T21:45:23.976Z,100461.86
2018-01-19T21:47:51.841Z,100464.55
2018-01-19T21:50:35.560Z,100468.66
2018-01-19T21:53:02.624Z,100469.88
2018-01-19T21:58:21.267Z,100476.64
2018-01-19T22:00:54.068Z,100471.89
2018-01-19T22:03:27.555Z,100473.26
2018-01-19T22:06:07.119Z,100469.31
2018-01-19T22:08:40.804Z,100467.98
2018-01-19T22:11:18.379Z,100465.52
2018-01-19T22:13:45.263Z,100466.11
2018-01-19T22:16:21.392Z,100473.42
2018-01-19T22:19:09.020Z,100468.42
2018-01-19T22:21:34.877Z,100473.68
2018-01-19T22:24:00.713Z,100472.66
2018-01-19T22:26:26.612Z,100469.45
2018-01-19T22:28:52.531Z,100463.84
2018-01-19T22:31:23.337Z,100475.55
2018-01-19T22:33:56.777Z,100476.67
2018-01-19T22:36:41.814Z,100478.42
2018-01-19T22:39:18.601Z,100472.13
2018-01-19T22:41:50.064Z,100475.86
2018-01-19T22:44:22.817Z,100474.91
2018-01-19T22:49:48.140Z,100475.22
2018-01-19T22:52:20.222Z,100470.42
2018-01-19T22:54:56.652Z,100480.98
2018-01-19T22:57:28.217Z,100471.09
2018-01-19T22:59:54.118Z,100470.58
2018-01-19T23:02:23.459Z,100470.23
2018-01-19T23:07:53.776Z,100469.86
2018-01-19T23:10:24.464Z,100474.31
2018-01-19T23:12:50.286Z,100474.91
2018-01-19T23:15:23.972Z,100483.27
2018-01-19T23:17:49.832Z,100482.56
2018-01-19T23:20:16.881Z,100481.33
2018-01-19T23:22:51.044Z,100489.82
2018-01-19T23:25:16.892Z,100479.78
2018-01-19T23:33:43.725Z,100487.55
2018-01-19T23:36:09.651Z,100491.34
2018-01-19T23:38:36.489Z,100484.91
2018-01-19T23:41:02.381Z,100485.88
2018-01-19T23:43:31.420Z,100484.87
2018-01-19T23:46:07.273Z,100488.50
2018-01-19T23:48:38.948Z,100487.17
2018-01-19T23:51:04.823Z,100479.61
2018-01-19T23:53:34.447Z,100481.33
2018-01-19T23:56:00.278Z,100496.84
